createdAt,value
2022-09-12T10:33:57.577Z,27.20
2022-09-12T10:36:25.682Z,27.20
2022-09-12T10:38:56.593Z,27.40
2022-09-12T10:41:24.479Z,27.50
2022-09-12T10:43:52.527Z,27.60
2022-09-12T10:46:30.653Z,27.50
2022-09-12T10:51:42.999Z,27.70
2022-09-12T10:56:43.932Z,27.60
2022-09-12T11:01:49.334Z,27.60
2022-09-12T11:04:24.980Z,27.60
2022-09-12T11:07:13.597Z,27.60
2022-09-12T11:09:44.730Z,27.60
2022-09-12T11:12:16.270Z,27.60
2022-09-12T11:14:57.471Z,27.60
2022-09-12T11:17:30.152Z,27.60
2022-09-12T11:20:41.098Z,27.60
2022-09-12T11:23:24.828Z,27.60
2022-09-12T11:28:36.363Z,27.60
2022-09-12T11:31:18.114Z,27.50
2022-09-12T11:36:24.219Z,27.60
2022-09-12T11:39:03.231Z,27.60
2022-09-12T11:41:33.833Z,27.60
2022-09-12T11:44:04.523Z,27.70
2022-09-12T11:46:34.831Z,27.80
2022-09-12T11:49:05.904Z,27.80
2022-09-12T11:51:35.743Z,27.90
2022-09-12T11:54:06.915Z,28.00
2022-09-12T11:56:36.721Z,28.10
2022-09-12T11:59:05.830Z,28.10
2022-09-12T12:01:41.289Z,28.10
2022-09-12T12:04:13.118Z,28.10
2022-09-12T12:06:48.260Z,28.10
2022-09-12T12:09:16.224Z,28.10
2022-09-12T12:11:48.730Z,28.10
2022-09-12T12:14:18.245Z,28.10
2022-09-12T12:16:46.166Z,28.10
2022-09-12T12:19:29.827Z,28.10
2022-09-12T12:21:57.733Z,28.00
2022-09-12T12:24:26.124Z,28.10
2022-09-12T12:27:00.191Z,28.10
2022-09-12T12:29:44.053Z,28.10
2022-09-12T12:32:25.974Z,28.10
2022-09-12T12:35:03.486Z,28.10
2022-09-12T12:37:52.139Z,28.10
2022-09-12T12:40:25.948Z,28.10
2022-09-12T12:43:32.082Z,28.10
2022-09-12T12:46:06.750Z,28.10
2022-09-12T12:48:50.715Z,28.10
2022-09-12T12:51:38.703Z,28.10
2022-09-12T12:54:12.798Z,28.10
2022-09-12T12:56:41.466Z,28.20
2022-09-12T12:59:18.817Z,28.20
2022-09-12T13:01:54.217Z,28.20
2022-09-12T13:04:24.009Z,28.20
2022-09-12T13:06:58.255Z,28.20
2022-09-12T13:09:28.192Z,28.20
2022-09-12T13:11:58.850Z,28.20
2022-09-12T13:14:38.824Z,28.20
2022-09-12T13:17:08.221Z,28.20
2022-09-12T13:19:37.888Z,28.20
2022-09-12T13:22:06.610Z,28.30
2022-09-12T13:24:34.688Z,28.30
2022-09-12T13:27:03.154Z,28.30
2022-09-12T13:29:31.386Z,28.30
2022-09-12T13:32:00.539Z,28.30
2022-09-12T13:34:31.372Z,28.40
2022-09-12T13:37:16.959Z,28.30
2022-09-12T13:39:48.397Z,28.40
2022-09-12T13:42:43.693Z,28.40
2022-09-12T13:45:14.490Z,28.30
2022-09-12T13:47:44.127Z,28.40
2022-09-12T13:50:18.787Z,28.40
2022-09-12T13:52:49.184Z,28.40
2022-09-12T13:55:25.114Z,28.50
2022-09-12T13:57:58.132Z,28.50
2022-09-12T14:00:26.235Z,28.50
2022-09-12T14:03:14.188Z,28.50
2022-09-12T14:05:44.615Z,28.50
2022-09-12T14:08:14.430Z,28.50
2022-09-12T14:10:43.693Z,28.50
2022-09-12T14:13:12.978Z,28.50
2022-09-12T14:15:40.949Z,28.50
2022-09-12T14:18:09.355Z,28.50
2022-09-12T14:20:37.845Z,28.50
2022-09-12T14:23:08.781Z,28.60
2022-09-12T14:25:39.129Z,28.60
2022-09-12T14:28:07.054Z,28.60
2022-09-12T14:30:36.139Z,28.60
2022-09-12T14:33:17.986Z,28.60
2022-09-12T14:35:46.495Z,28.60
2022-09-12T14:38:22.348Z,28.60
2022-09-12T14:40:52.188Z,28.60
2022-09-12T14:43:22.306Z,28.70
2022-09-12T14:45:54.374Z,28.70
2022-09-12T14:48:22.290Z,28.70
2022-09-12T14:50:50.552Z,28.70
2022-09-12T14:53:33.579Z,28.70
2022-09-12T14:56:08.894Z,28.70
2022-09-12T14:58:37.062Z,28.70
2022-09-12T15:01:22.707Z,28.70
2022-09-12T15:03:53.380Z,28.70
2022-09-12T15:06:23.578Z,28.80
2022-09-12T15:08:53.972Z,28.80
2022-09-12T15:11:21.967Z,28.80
2022-09-12T15:13:49.890Z,28.80
2022-09-12T15:16:17.969Z,28.80
2022-09-12T15:18:45.941Z,28.80
2022-09-12T15:21:15.030Z,28.80
2022-09-12T15:23:44.126Z,28.80
2022-09-12T15:26:14.446Z,28.80
2022-09-12T15:28:42.465Z,28.80
2022-09-12T15:31:13.883Z,28.80
2022-09-12T15:33:41.825Z,28.80
2022-09-12T15:36:16.002Z,28.80
2022-09-12T15:38:44.421Z,28.80
2022-09-12T15:41:15.973Z,28.80
2022-09-12T15:43:44.056Z,28.80
2022-09-12T15:46:13.177Z,28.80
2022-09-12T15:48:41.264Z,28.90
2022-09-12T15:51:15.224Z,28.90
2022-09-12T15:53:43.837Z,28.90
2022-09-12T15:56:11.800Z,28.90
2022-09-12T15:58:57.097Z,28.90
2022-09-12T16:01:26.048Z,28.90
2022-09-12T16:03:54.200Z,29.00
2022-09-12T16:06:22.351Z,29.00
2022-09-12T16:08:50.287Z,29.00
2022-09-12T16:11:19.939Z,29.00
2022-09-12T16:13:49.686Z,29.00
2022-09-12T16:16:17.689Z,29.00
2022-09-12T16:18:45.775Z,29.00
2022-09-12T16:21:15.448Z,29.00
2022-09-12T16:23:43.968Z,29.00
2022-09-12T16:26:12.056Z,28.90
2022-09-12T16:28:40.124Z,29.00
2022-09-12T16:31:11.173Z,29.00
2022-09-12T16:33:39.765Z,29.00
2022-09-12T16:36:08.663Z,29.00
2022-09-12T16:38:41.092Z,29.00
2022-09-12T16:41:08.985Z,29.00
2022-09-12T16:43:37.051Z,29.00
2022-09-12T16:46:05.605Z,29.00
2022-09-12T16:48:34.949Z,29.00
2022-09-12T16:51:04.982Z,29.00
2022-09-12T16:53:33.397Z,29.00
2022-09-12T16:56:01.340Z,29.00
2022-09-12T16:58:29.291Z,29.10
2022-09-12T17:01:03.671Z,29.10
2022-09-12T17:03:31.644Z,29.20
2022-09-12T17:06:01.517Z,29.40
2022-09-12T17:08:29.619Z,29.50
2022-09-12T17:11:01.146Z,29.60
2022-09-12T17:13:46.639Z,29.70
2022-09-12T17:16:17.274Z,29.70
2022-09-12T17:18:45.268Z,29.80
2022-09-12T17:21:14.719Z,29.90
2022-09-12T17:23:42.816Z,29.90
2022-09-12T17:26:11.144Z,30.00
2022-09-12T17:28:39.129Z,30.10
2022-09-12T17:31:08.579Z,30.10
2022-09-12T17:33:39.670Z,30.20
2022-09-12T17:36:09.342Z,30.20
2022-09-12T17:38:39.615Z,30.10
2022-09-12T17:41:08.358Z,30.10
2022-09-12T17:43:38.028Z,30.00
2022-09-12T17:46:06.224Z,29.90
2022-09-12T17:48:34.197Z,29.90
2022-09-12T17:51:08.220Z,29.90
2022-09-12T17:53:36.174Z,29.80
2022-09-12T17:56:05.947Z,29.80
2022-09-12T17:58:33.951Z,29.70
2022-09-12T18:01:19.834Z,29.70
2022-09-12T18:03:48.187Z,29.70
2022-09-12T18:06:16.327Z,29.70
2022-09-12T18:08:44.258Z,29.60
2022-09-12T18:11:13.556Z,29.60
2022-09-12T18:13:41.523Z,29.60
2022-09-12T18:16:10.731Z,29.60
2022-09-12T18:18:38.900Z,29.60
2022-09-12T18:21:07.770Z,29.50
2022-09-12T18:23:35.823Z,29.50
2022-09-12T18:26:04.859Z,29.50
2022-09-12T18:28:34.652Z,29.50
2022-09-12T18:31:02.765Z,29.50
2022-09-12T18:33:30.718Z,29.50
2022-09-12T18:35:58.650Z,29.50
2022-09-12T18:38:26.739Z,29.40
2022-09-12T18:41:02.870Z,29.40
2022-09-12T18:43:30.857Z,29.40
2022-09-12T18:46:03.213Z,29.40
2022-09-12T18:48:32.659Z,29.40
2022-09-12T18:51:05.893Z,29.40
2022-09-12T18:53:34.158Z,29.40
2022-09-12T18:56:03.271Z,29.40
2022-09-12T18:58:31.196Z,29.40
2022-09-12T19:01:00.584Z,29.40
2022-09-12T19:03:28.546Z,29.40
2022-09-12T19:05:56.433Z,29.40
2022-09-12T19:08:24.460Z,29.40
2022-09-12T19:10:56.478Z,29.40
2022-09-12T19:13:24.658Z,29.40
2022-09-12T19:15:52.621Z,29.40
2022-09-12T19:18:21.930Z,29.40
2022-09-12T19:20:52.467Z,29.30
2022-09-12T19:23:20.549Z,29.40
2022-09-12T19:25:56.624Z,29.40
2022-09-12T19:28:24.560Z,29.30
2022-09-12T19:30:53.534Z,29.40
2022-09-12T19:33:22.978Z,29.30
2022-09-12T19:35:50.972Z,29.30
2022-09-12T19:38:19.023Z,29.30
2022-09-12T19:40:56.113Z,29.30
2022-09-12T19:43:24.270Z,29.30
2022-09-12T19:45:52.968Z,29.30
2022-09-12T19:48:22.384Z,29.20
2022-09-12T19:50:50.538Z,29.20
2022-09-12T19:53:18.592Z,29.20
2022-09-12T19:55:47.027Z,29.10
2022-09-12T19:58:14.923Z,29.20
2022-09-12T20:00:42.848Z,29.10
2022-09-12T20:03:10.886Z,29.10
2022-09-12T20:05:42.758Z,29.10
2022-09-12T20:08:11.077Z,29.10
2022-09-12T20:10:39.184Z,29.10
2022-09-12T20:13:07.181Z,29.10
2022-09-12T20:15:35.228Z,29.10
2022-09-12T20:18:03.180Z,29.10
2022-09-12T20:20:31.669Z,29.10
2022-09-12T20:23:01.154Z,29.10
2022-09-12T20:25:29.109Z,29.10
2022-09-12T20:28:00.192Z,29.10
2022-09-12T20:30:28.440Z,29.10
2022-09-12T20:32:56.365Z,29.10
2022-09-12T20:35:24.260Z,29.10
2022-09-12T20:37:52.325Z,29.10
2022-09-12T20:40:21.760Z,29.10
2022-09-12T20:42:49.888Z,29.10
2022-09-12T20:45:18.202Z,29.10
2022-09-12T20:47:46.131Z,29.10
2022-09-12T20:50:14.506Z,29.10
2022-09-12T20:52:42.470Z,28.90
2022-09-12T20:55:11.186Z,29.10
2022-09-12T20:57:40.460Z,29.10
2022-09-12T21:00:10.972Z,29.10
2022-09-12T21:02:39.099Z,29.10
2022-09-12T21:05:07.334Z,29.10
2022-09-12T21:07:35.573Z,29.10
2022-09-12T21:10:03.530Z,29.10
2022-09-12T21:12:31.503Z,29.00
2022-09-12T21:15:00.914Z,29.00
2022-09-12T21:17:28.831Z,28.80
2022-09-12T21:19:56.723Z,29.00
2022-09-12T21:22:24.755Z,29.00
2022-09-12T21:24:52.714Z,29.00
2022-09-12T21:27:20.637Z,29.00
2022-09-12T21:29:48.668Z,29.00
2022-09-12T21:32:18.041Z,29.00
2022-09-12T21:34:46.298Z,29.00
2022-09-12T21:37:14.405Z,29.00
2022-09-12T21:39:42.388Z,29.00
2022-09-12T21:42:10.335Z,29.00
2022-09-12T21:44:38.376Z,29.00
2022-09-12T21:47:06.634Z,29.00
2022-09-12T21:49:35.937Z,29.00
2022-09-12T21:52:04.320Z,29.00
2022-09-12T21:54:32.263Z,29.00
2022-09-12T21:57:00.187Z,29.00
2022-09-12T21:59:28.218Z,29.00
2022-09-12T22:01:56.219Z,29.00
2022-09-12T22:04:24.226Z,29.00
2022-09-12T22:06:53.627Z,28.90
2022-09-12T22:09:21.525Z,28.90
2022-09-12T22:11:49.844Z,28.90
2022-09-12T22:14:18.078Z,29.00
2022-09-12T22:16:45.955Z,28.90
2022-09-12T22:19:15.077Z,29.00
2022-09-12T22:22:03.020Z,28.90
2022-09-12T22:24:31.342Z,29.00
2022-09-12T22:27:00.035Z,29.00
2022-09-12T22:29:27.965Z,28.90
2022-09-12T22:31:55.894Z,28.90
2022-09-12T22:34:23.854Z,28.90
2022-09-12T22:36:51.796Z,28.90
2022-09-12T22:39:20.048Z,29.10
2022-09-12T22:41:49.336Z,28.90
2022-09-12T22:44:17.817Z,28.80
2022-09-12T22:46:46.013Z,28.80
2022-09-12T22:49:13.952Z,28.80
2022-09-12T22:51:41.911Z,28.80
2022-09-12T22:54:10.848Z,28.80
2022-09-12T22:56:39.396Z,28.80
2022-09-12T22:59:08.669Z,28.80
2022-09-12T23:01:36.651Z,28.80
2022-09-12T23:04:05.263Z,28.80
2022-09-12T23:06:33.162Z,28.80
2022-09-12T23:09:01.419Z,28.80
2022-09-12T23:11:29.344Z,28.80
2022-09-12T23:13:57.298Z,28.80
2022-09-12T23:16:31.173Z,28.80
2022-09-12T23:18:59.167Z,28.80
2022-09-12T23:21:27.033Z,28.80
2022-09-12T23:23:56.215Z,28.80
2022-09-12T23:26:24.861Z,28.80
2022-09-12T23:28:53.803Z,28.80
2022-09-12T23:31:21.883Z,28.70
2022-09-12T23:33:53.220Z,28.70
2022-09-12T23:36:21.165Z,28.70
2022-09-12T23:38:49.280Z,28.70
2022-09-12T23:41:17.674Z,28.70
2022-09-12T23:43:45.858Z,28.70
2022-09-12T23:46:13.989Z,28.70
2022-09-12T23:48:42.246Z,28.80
2022-09-12T23:51:11.639Z,28.70
2022-09-12T23:53:39.567Z,28.90
2022-09-12T23:56:07.908Z,28.70
